createdAt,value
2022-11-13T00:00:19.328Z,10.59
2022-11-13T00:01:17.906Z,10.60
2022-11-13T00:02:17.561Z,10.56
2022-11-13T00:03:17.673Z,10.56
2022-11-13T00:04:17.447Z,10.56
2022-11-13T00:05:17.395Z,10.56
2022-11-13T00:06:17.013Z,10.56
2022-11-13T00:07:17.377Z,10.56
2022-11-13T00:08:17.138Z,10.56
2022-11-13T00:09:16.954Z,10.56
2022-11-13T00:10:18.035Z,10.56
2022-11-13T00:11:17.368Z,10.56
2022-11-13T00:12:17.524Z,10.56
2022-11-13T00:13:17.462Z,10.55
2022-11-13T00:14:17.431Z,10.56
2022-11-13T00:15:17.655Z,10.52
2022-11-13T00:16:17.812Z,10.5
2022-11-13T00:17:18.408Z,10.5
2022-11-13T00:18:17.219Z,10.52
2022-11-13T00:19:17.583Z,10.5
2022-11-13T00:20:17.499Z,10.5
2022-11-13T00:21:17.516Z,10.5
2022-11-13T00:22:17.342Z,10.48
2022-11-13T00:23:17.515Z,10.5
2022-11-13T00:24:18.086Z,10.5
2022-11-13T00:25:17.344Z,10.5
2022-11-13T00:26:17.614Z,10.47
2022-11-13T00:27:17.990Z,10.44
2022-11-13T00:28:16.909Z,10.43
2022-11-13T00:29:17.912Z,10.43
2022-11-13T00:30:25.358Z,10.38
2022-11-13T00:31:17.314Z,10.38
2022-11-13T00:32:17.418Z,10.39
2022-11-13T00:33:38.363Z,10.39
2022-11-13T00:34:52.308Z,10.37
2022-11-13T00:35:17.447Z,10.37
2022-11-13T00:37:17.242Z,10.37
2022-11-13T00:38:16.914Z,10.37
2022-11-13T00:39:17.623Z,10.36
2022-11-13T00:40:17.110Z,10.31
2022-11-13T00:41:17.180Z,10.31
2022-11-13T00:42:17.316Z,10.35
2022-11-13T00:43:17.074Z,10.32
2022-11-13T00:44:17.051Z,10.31
2022-11-13T00:45:17.007Z,10.31
2022-11-13T00:46:16.483Z,10.31
2022-11-13T00:47:17.586Z,10.28
2022-11-13T00:48:17.439Z,10.25
2022-11-13T00:49:17.261Z,10.29
2022-11-13T00:50:17.200Z,10.26
2022-11-13T00:51:17.271Z,10.25
2022-11-13T00:52:17.017Z,10.25
2022-11-13T00:53:23.895Z,10.23
2022-11-13T00:54:17.513Z,10.23
2022-11-13T00:55:17.655Z,10.25
2022-11-13T00:56:17.622Z,10.19
2022-11-13T00:57:17.582Z,10.18
2022-11-13T00:58:16.954Z,10.21
2022-11-13T00:59:17.842Z,10.22
2022-11-13T01:00:27.455Z,10.23
2022-11-13T01:01:19.598Z,10.21
2022-11-13T01:02:17.439Z,10.19
2022-11-13T01:03:17.547Z,10.18
2022-11-13T01:04:17.234Z,10.18
2022-11-13T01:05:15.285Z,10.18
2022-11-13T01:06:17.368Z,10.18
2022-11-13T01:07:17.553Z,10.18
2022-11-13T01:08:17.360Z,10.18
2022-11-13T01:09:17.575Z,10.18
2022-11-13T01:10:17.059Z,10.18
2022-11-13T01:11:16.953Z,10.18
2022-11-13T01:12:17.609Z,10.18
2022-11-13T01:13:17.275Z,10.18
2022-11-13T01:14:17.112Z,10.18
2022-11-13T01:15:17.066Z,10.18
2022-11-13T01:16:16.648Z,10.18
2022-11-13T01:17:17.390Z,10.18
2022-11-13T01:18:17.203Z,10.18
2022-11-13T01:19:17.158Z,10.18
2022-11-13T01:20:17.260Z,10.18
2022-11-13T01:21:17.172Z,10.18
2022-11-13T01:22:16.804Z,10.16
2022-11-13T01:23:17.692Z,10.18
2022-11-13T01:24:16.971Z,10.18
2022-11-13T01:25:18.127Z,10.18
2022-11-13T01:26:17.577Z,10.18
2022-11-13T01:27:17.325Z,10.21
2022-11-13T01:28:16.897Z,10.20
2022-11-13T01:29:17.758Z,10.23
2022-11-13T01:30:17.505Z,10.25
2022-11-13T01:31:17.321Z,10.25
2022-11-13T01:32:17.187Z,10.25
2022-11-13T01:33:16.941Z,10.25
2022-11-13T01:34:17.385Z,10.25
2022-11-13T01:35:17.390Z,10.25
2022-11-13T01:36:17.067Z,10.25
2022-11-13T01:37:17.123Z,10.25
2022-11-13T01:38:16.940Z,10.25
2022-11-13T01:39:17.903Z,10.25
2022-11-13T01:40:17.628Z,10.23
2022-11-13T01:41:22.803Z,10.23
2022-11-13T01:42:17.009Z,10.20
2022-11-13T01:43:17.175Z,10.25
2022-11-13T01:44:16.853Z,10.25
2022-11-13T01:45:17.879Z,10.19
2022-11-13T01:46:17.904Z,10.18
2022-11-13T01:47:18.380Z,10.19
2022-11-13T01:48:17.395Z,10.22
2022-11-13T01:49:17.557Z,10.18
2022-11-13T01:50:17.480Z,10.18
2022-11-13T01:51:17.339Z,10.13
2022-11-13T01:52:17.350Z,10.14
2022-11-13T01:53:17.323Z,10.18
2022-11-13T01:54:17.333Z,10.18
2022-11-13T01:55:17.501Z,10.17
2022-11-13T01:56:17.636Z,10.15
2022-11-13T01:57:17.457Z,10.12
2022-11-13T01:58:17.150Z,10.17
2022-11-13T01:59:17.336Z,10.16
2022-11-13T02:00:18.223Z,10.12
2022-11-13T02:01:17.236Z,10.12
2022-11-13T02:02:16.716Z,10.12
2022-11-13T02:03:17.685Z,10.12
2022-11-13T02:04:17.533Z,10.12
2022-11-13T02:05:17.737Z,10.10
2022-11-13T02:06:17.248Z,10.11
2022-11-13T02:07:17.727Z,10.10
2022-11-13T02:08:18.471Z,10.06
2022-11-13T02:09:17.499Z,10.06
2022-11-13T02:10:17.350Z,10.06
2022-11-13T02:11:17.221Z,10.06
2022-11-13T02:12:17.126Z,10.01
2022-11-13T02:13:17.238Z,10
2022-11-13T02:14:17.166Z,10
2022-11-13T02:15:17.693Z,10
2022-11-13T02:16:17.481Z,10
2022-11-13T02:17:17.952Z,10
2022-11-13T02:18:17.561Z,10
2022-11-13T02:19:17.468Z,10
2022-11-13T02:20:17.706Z,9.979
2022-11-13T02:21:17.794Z,9.937
2022-11-13T02:22:17.438Z,9.937
2022-11-13T02:23:17.470Z,9.946
2022-11-13T02:24:17.451Z,10
2022-11-13T02:25:18.008Z,9.937
2022-11-13T02:26:17.045Z,9.937
2022-11-13T02:27:17.259Z,9.937
2022-11-13T02:28:17.197Z,9.937
2022-11-13T02:29:17.343Z,9.937
2022-11-13T02:31:17.346Z,9.928
2022-11-13T02:32:16.969Z,9.937
2022-11-13T02:33:18.042Z,9.901
2022-11-13T02:34:17.189Z,9.912
2022-11-13T02:35:17.433Z,9.875
2022-11-13T02:36:17.273Z,9.875
2022-11-13T02:37:17.061Z,9.875
2022-11-13T02:38:16.621Z,9.887
2022-11-13T02:39:17.868Z,9.926
2022-11-13T02:40:17.953Z,9.885
2022-11-13T02:41:18.103Z,9.864
2022-11-13T02:42:17.045Z,9.833
2022-11-13T02:43:17.063Z,9.875
2022-11-13T02:44:16.627Z,9.875
2022-11-13T02:45:17.746Z,9.875
2022-11-13T02:46:17.297Z,9.875
2022-11-13T02:47:17.379Z,9.875
2022-11-13T02:48:17.017Z,9.864
2022-11-13T02:49:17.257Z,9.822
2022-11-13T02:50:17.385Z,9.812
2022-11-13T02:51:17.520Z,9.822
2022-11-13T02:52:17.313Z,9.801
2022-11-13T02:53:17.472Z,9.812
2022-11-13T02:55:17.484Z,9.75
2022-11-13T02:56:17.267Z,9.791
2022-11-13T02:57:17.222Z,9.812
2022-11-13T02:58:17.112Z,9.770
2022-11-13T02:59:17.303Z,9.75
2022-11-13T03:00:20.552Z,9.760
2022-11-13T03:01:17.839Z,9.75
2022-11-13T03:02:17.487Z,9.75
2022-11-13T03:03:34.282Z,9.75
2022-11-13T03:04:17.550Z,9.75
2022-11-13T03:05:20.169Z,9.75
2022-11-13T03:06:17.335Z,9.75
2022-11-13T03:07:17.316Z,9.75
2022-11-13T03:08:16.767Z,9.718
2022-11-13T03:09:17.707Z,9.75
2022-11-13T03:10:17.176Z,9.697
2022-11-13T03:11:17.183Z,9.708
2022-11-13T03:12:16.779Z,9.687
2022-11-13T03:13:17.580Z,9.666
2022-11-13T03:14:17.242Z,9.687
2022-11-13T03:15:17.561Z,9.697
2022-11-13T03:16:17.406Z,9.687
2022-11-13T03:17:17.473Z,9.687
2022-11-13T03:18:17.368Z,9.656
2022-11-13T03:19:17.677Z,9.625
2022-11-13T03:20:17.484Z,9.645
2022-11-13T03:21:17.572Z,9.625
2022-11-13T03:22:17.619Z,9.625
2022-11-13T03:23:18.053Z,9.614
2022-11-13T03:24:16.711Z,9.604
2022-11-13T03:25:17.919Z,9.625
2022-11-13T03:26:17.875Z,9.625
2022-11-13T03:27:18.065Z,9.625
2022-11-13T03:28:16.920Z,9.625
2022-11-13T03:29:17.679Z,9.625
2022-11-13T03:30:17.559Z,9.593
2022-11-13T03:31:17.636Z,9.583
2022-11-13T03:32:17.190Z,9.614
2022-11-13T03:33:17.382Z,9.562
2022-11-13T03:34:17.216Z,9.562
2022-11-13T03:35:17.291Z,9.562
2022-11-13T03:36:16.896Z,9.562
2022-11-13T03:37:17.788Z,9.562
2022-11-13T03:38:17.223Z,9.562
2022-11-13T03:39:17.344Z,9.562
2022-11-13T03:40:17.477Z,9.562
2022-11-13T03:41:17.233Z,9.562
2022-11-13T03:42:16.959Z,9.572
2022-11-13T03:43:17.695Z,9.562
2022-11-13T03:44:16.997Z,9.520
2022-11-13T03:45:17.373Z,9.5
2022-11-13T03:46:17.179Z,9.5
2022-11-13T03:47:17.164Z,9.5
2022-11-13T03:48:16.868Z,9.5
2022-11-13T03:49:17.775Z,9.5
2022-11-13T03:50:17.863Z,9.5
2022-11-13T03:51:18.152Z,9.5
2022-11-13T03:52:16.748Z,9.489
2022-11-13T03:53:17.571Z,9.447
2022-11-13T03:54:17.456Z,9.437
2022-11-13T03:55:19.729Z,9.491
2022-11-13T03:56:17.891Z,9.437
2022-11-13T03:57:17.819Z,9.447
2022-11-13T03:58:17.298Z,9.437
2022-11-13T03:59:17.341Z,9.446
2022-11-13T04:00:18.208Z,9.449
2022-11-13T04:01:17.703Z,9.437
2022-11-13T04:02:17.537Z,9.437
2022-11-13T04:03:17.641Z,9.406
2022-11-13T04:04:17.601Z,9.437
2022-11-13T04:05:22.479Z,9.454
2022-11-13T04:06:17.645Z,9.474
2022-11-13T04:07:17.657Z,9.437
2022-11-13T04:08:17.919Z,9.437
2022-11-13T04:09:17.905Z,9.437
2022-11-13T04:10:17.881Z,9.412
2022-11-13T04:11:18.083Z,9.375
2022-11-13T04:12:17.013Z,9.385
2022-11-13T04:13:17.382Z,9.401
2022-11-13T04:14:17.227Z,9.412
2022-11-13T04:15:17.567Z,9.385
2022-11-13T04:16:17.117Z,9.416
2022-11-13T04:17:17.348Z,9.385
2022-11-13T04:18:17.291Z,9.385
2022-11-13T04:19:17.552Z,9.385
2022-11-13T04:20:17.508Z,9.437
2022-11-13T04:21:17.491Z,9.437
2022-11-13T04:22:17.350Z,9.416
2022-11-13T04:23:17.681Z,9.437
2022-11-13T04:24:16.414Z,9.395
2022-11-13T04:25:17.657Z,9.375
2022-11-13T04:26:17.380Z,9.375
2022-11-13T04:27:17.683Z,9.364
2022-11-13T04:28:17.182Z,9.375
2022-11-13T04:29:17.404Z,9.375
2022-11-13T04:30:19.077Z,9.375
2022-11-13T04:31:17.071Z,9.375
2022-11-13T04:32:16.836Z,9.375
2022-11-13T04:33:17.746Z,9.333
2022-11-13T04:34:17.589Z,9.375
2022-11-13T04:35:17.620Z,9.375
2022-11-13T04:36:17.447Z,9.375
2022-11-13T04:37:17.226Z,9.312
2022-11-13T04:38:17.159Z,9.312
2022-11-13T04:39:17.477Z,9.375
2022-11-13T04:40:17.407Z,9.375
2022-11-13T04:41:17.590Z,9.375
2022-11-13T04:42:17.318Z,9.364
2022-11-13T04:43:17.181Z,9.364
2022-11-13T04:44:16.972Z,9.375
2022-11-13T04:46:03.743Z,9.343
2022-11-13T04:46:17.443Z,9.343
2022-11-13T04:47:17.641Z,9.364
2022-11-13T04:48:17.654Z,9.375
2022-11-13T04:49:17.743Z,9.375
2022-11-13T04:50:17.875Z,9.375
2022-11-13T04:51:18.036Z,9.354
2022-11-13T04:52:17.137Z,9.312
2022-11-13T04:53:17.374Z,9.322
2022-11-13T04:54:17.216Z,9.333
2022-11-13T04:55:17.558Z,9.312
2022-11-13T04:56:17.220Z,9.322
2022-11-13T04:57:17.464Z,9.375
2022-11-13T04:58:17.343Z,9.364
2022-11-13T04:59:17.414Z,9.343
2022-11-13T05:00:18.390Z,9.322
2022-11-13T05:01:17.677Z,9.312
2022-11-13T05:02:17.199Z,9.312
2022-11-13T05:03:17.486Z,9.312
2022-11-13T05:04:17.499Z,9.312
2022-11-13T05:05:17.802Z,9.312
2022-11-13T05:06:17.622Z,9.312
2022-11-13T05:07:17.836Z,9.301
2022-11-13T05:08:17.467Z,9.312
2022-11-13T05:09:17.739Z,9.260
2022-11-13T05:10:17.649Z,9.25
2022-11-13T05:11:17.480Z,9.25
2022-11-13T05:12:17.052Z,9.25
2022-11-13T05:13:17.313Z,9.25
2022-11-13T05:14:16.826Z,9.25
2022-11-13T05:15:18.236Z,9.239
2022-11-13T05:17:18.041Z,9.197
2022-11-13T05:18:16.944Z,9.197
2022-11-13T05:19:18.018Z,9.187
2022-11-13T05:20:16.949Z,9.187
2022-11-13T05:21:18.102Z,9.208
2022-11-13T05:22:17.025Z,9.208
2022-11-13T05:23:16.996Z,9.187
2022-11-13T05:24:17.140Z,9.187
2022-11-13T05:25:17.523Z,9.187
2022-11-13T05:26:17.096Z,9.197
2022-11-13T05:27:23.368Z,9.187
2022-11-13T05:28:17.398Z,9.187
2022-11-13T05:29:17.562Z,9.187
2022-11-13T05:30:17.654Z,9.187
2022-11-13T05:31:17.835Z,9.166
2022-11-13T05:32:17.854Z,9.156
2022-11-13T05:33:17.995Z,9.187
2022-11-13T05:34:16.993Z,9.156
2022-11-13T05:35:17.278Z,9.104
2022-11-13T05:36:17.122Z,9.125
2022-11-13T05:37:17.296Z,9.133
2022-11-13T05:38:17.249Z,9.174
2022-11-13T05:39:17.568Z,9.125
2022-11-13T05:40:23.027Z,9.125
2022-11-13T05:41:17.443Z,9.125
2022-11-13T05:42:31.239Z,9.125
2022-11-13T05:43:17.562Z,9.125
2022-11-13T05:44:17.274Z,9.087
2022-11-13T05:45:17.303Z,9.072
2022-11-13T05:46:17.543Z,9.072
2022-11-13T05:47:17.960Z,9.051
2022-11-13T05:48:17.690Z,9.062
2022-11-13T05:49:17.729Z,9.051
2022-11-13T05:50:17.755Z,9.072
2022-11-13T05:51:17.869Z,9.125
2022-11-13T05:52:18.000Z,9.083
2022-11-13T05:53:17.335Z,9.062
2022-11-13T05:54:17.071Z,9.062
2022-11-13T05:55:19.245Z,9.062
2022-11-13T05:56:16.996Z,9.072
2022-11-13T05:57:17.555Z,9.071
2022-11-13T05:58:17.242Z,9.020
2022-11-13T05:59:17.321Z,9.031
2022-11-13T06:00:18.497Z,9.010
2022-11-13T06:01:17.812Z,9
2022-11-13T06:02:17.704Z,9
2022-11-13T06:03:18.007Z,9.020
2022-11-13T06:04:16.933Z,9.041
2022-11-13T06:05:18.153Z,9.010
2022-11-13T06:06:17.441Z,9
2022-11-13T06:07:17.766Z,9.020
2022-11-13T06:08:17.782Z,9
2022-11-13T06:09:18.411Z,9
2022-11-13T06:10:18.113Z,9
2022-11-13T06:11:17.415Z,9
2022-11-13T06:12:17.649Z,9
2022-11-13T06:13:17.813Z,8.989
2022-11-13T06:14:17.459Z,8.968
2022-11-13T06:15:17.809Z,8.937
2022-11-13T06:16:18.379Z,8.937
2022-11-13T06:17:17.643Z,8.937
2022-11-13T06:18:18.185Z,8.937
2022-11-13T06:19:17.232Z,8.937
2022-11-13T06:20:17.406Z,8.937
2022-11-13T06:21:17.779Z,8.937
2022-11-13T06:22:17.791Z,8.937
2022-11-13T06:23:17.731Z,8.937
2022-11-13T06:24:17.653Z,8.937
2022-11-13T06:25:18.009Z,8.926
2022-11-13T06:26:17.302Z,8.885
2022-11-13T06:27:17.968Z,8.885
2022-11-13T06:28:17.066Z,8.875
2022-11-13T06:29:17.629Z,8.854
2022-11-13T06:30:17.831Z,8.864
2022-11-13T06:31:18.114Z,8.864
2022-11-13T06:32:17.188Z,8.875
2022-11-13T06:33:17.574Z,8.833
2022-11-13T06:34:17.672Z,8.833
2022-11-13T06:35:17.677Z,8.875
2022-11-13T06:36:17.309Z,8.854
2022-11-13T06:37:17.266Z,8.864
2022-11-13T06:38:17.335Z,8.822
2022-11-13T06:39:17.630Z,8.833
2022-11-13T06:40:17.892Z,8.875
2022-11-13T06:41:17.935Z,8.875
2022-11-13T06:42:18.237Z,8.875
2022-11-13T06:43:18.219Z,8.864
2022-11-13T06:44:17.663Z,8.812
2022-11-13T06:45:18.532Z,8.812
2022-11-13T06:46:50.485Z,8.781
2022-11-13T06:47:17.688Z,8.781
2022-11-13T06:48:17.396Z,8.75
2022-11-13T06:49:17.451Z,8.812
2022-11-13T06:50:17.264Z,8.812
2022-11-13T06:51:17.546Z,8.812
2022-11-13T06:52:17.235Z,8.812
2022-11-13T06:53:17.134Z,8.75
2022-11-13T06:54:16.936Z,8.812
2022-11-13T06:55:18.032Z,8.812
2022-11-13T06:56:16.445Z,8.812
2022-11-13T06:57:17.330Z,8.812
2022-11-13T06:58:17.084Z,8.770
2022-11-13T06:59:17.412Z,8.791
2022-11-13T07:00:18.230Z,8.801
2022-11-13T07:01:17.676Z,8.812
2022-11-13T07:02:17.018Z,8.801
2022-11-13T07:03:17.324Z,8.812
2022-11-13T07:04:17.079Z,8.812
2022-11-13T07:05:17.480Z,8.781
2022-11-13T07:06:17.383Z,6.900
2022-11-13T07:07:17.744Z,8.767
2022-11-13T07:08:17.354Z,8.812
2022-11-13T07:09:17.739Z,8.822
2022-11-13T07:10:17.691Z,8.812
2022-11-13T07:11:17.541Z,8.812
2022-11-13T07:12:17.308Z,8.812
2022-11-13T07:13:17.283Z,8.776
2022-11-13T07:14:17.315Z,8.812
2022-11-13T07:15:17.406Z,8.812
2022-11-13T07:17:17.517Z,8.812
2022-11-13T07:18:21.507Z,8.812
2022-11-13T07:19:18.002Z,8.781
2022-11-13T07:20:17.510Z,8.760
2022-11-13T07:21:17.488Z,8.812
2022-11-13T07:22:17.235Z,8.812
2022-11-13T07:23:17.353Z,8.770
2022-11-13T07:25:17.676Z,8.812
2022-11-13T07:26:17.801Z,8.812
2022-11-13T07:27:17.867Z,8.812
2022-11-13T07:28:18.054Z,8.812
2022-11-13T07:29:17.338Z,8.812
2022-11-13T07:30:17.556Z,8.812
2022-11-13T07:31:17.633Z,8.760
2022-11-13T07:32:17.487Z,8.812
2022-11-13T07:33:17.547Z,8.801
2022-11-13T07:34:17.461Z,8.812
2022-11-13T07:35:17.582Z,8.812
2022-11-13T07:36:17.744Z,8.801
2022-11-13T07:37:17.620Z,8.760
2022-11-13T07:38:17.381Z,8.760
2022-11-13T07:39:17.571Z,8.791
2022-11-13T07:40:17.735Z,8.801
2022-11-13T07:41:17.980Z,8.812
2022-11-13T07:42:16.562Z,8.812
2022-11-13T07:43:18.058Z,8.812
2022-11-13T07:44:47.725Z,8.812
2022-11-13T07:45:17.677Z,8.812
2022-11-13T07:46:17.376Z,8.812
2022-11-13T07:47:17.230Z,8.843
2022-11-13T07:48:16.894Z,8.843
2022-11-13T07:49:17.796Z,8.864
2022-11-13T07:50:17.580Z,8.875
2022-11-13T07:51:17.546Z,8.875
2022-11-13T07:52:17.493Z,8.875
2022-11-13T07:53:17.868Z,8.875
2022-11-13T07:54:17.376Z,8.875
2022-11-13T07:55:17.498Z,8.875
2022-11-13T07:56:21.852Z,8.875
2022-11-13T07:57:17.319Z,8.812
2022-11-13T07:58:16.956Z,8.75
2022-11-13T07:59:18.141Z,8.781
2022-11-13T08:00:17.998Z,8.812
2022-11-13T08:01:31.176Z,8.875
2022-11-13T08:02:16.930Z,8.875
2022-11-13T08:03:18.132Z,8.895
2022-11-13T08:04:17.312Z,8.916
2022-11-13T08:05:17.455Z,8.843
2022-11-13T08:06:17.676Z,8.875
2022-11-13T08:07:18.239Z,8.833
2022-11-13T08:08:17.269Z,8.916
2022-11-13T08:09:17.718Z,8.989
2022-11-13T08:10:17.484Z,9
2022-11-13T08:11:17.737Z,9
2022-11-13T08:12:17.964Z,9.062
2022-11-13T08:13:18.230Z,9.051
2022-11-13T08:14:17.464Z,9.062
2022-11-13T08:15:20.114Z,9.062
2022-11-13T08:16:17.395Z,9.062
2022-11-13T08:17:17.571Z,9.062
2022-11-13T08:18:17.168Z,9.062
2022-11-13T08:19:17.405Z,9.062
2022-11-13T08:20:17.281Z,9.062
2022-11-13T08:21:21.538Z,9.114
2022-11-13T08:22:17.510Z,9.125
2022-11-13T08:23:17.700Z,9.125
2022-11-13T08:24:17.542Z,9.125
2022-11-13T08:25:17.865Z,9.125
2022-11-13T08:26:17.763Z,9.125
2022-11-13T08:27:17.919Z,9.125
2022-11-13T08:28:19.928Z,9.125
2022-11-13T08:29:18.409Z,9.125
2022-11-13T08:30:17.773Z,9.114
2022-11-13T08:31:36.878Z,9.093
2022-11-13T08:32:17.904Z,9.125
2022-11-13T08:33:18.281Z,9.135
2022-11-13T08:34:17.276Z,9.166
2022-11-13T08:35:28.129Z,9.062
2022-11-13T08:36:16.995Z,9.062
2022-11-13T08:37:17.333Z,9.051
2022-11-13T08:38:17.078Z,9.041
2022-11-13T08:39:17.579Z,9.051
2022-11-13T08:40:17.419Z,9.010
2022-11-13T08:41:17.473Z,9
2022-11-13T08:42:17.324Z,9.051
2022-11-13T08:43:17.478Z,9.062
2022-11-13T08:44:17.537Z,9.062
2022-11-13T08:45:17.727Z,9.062
2022-11-13T08:46:17.856Z,9.062
2022-11-13T08:47:17.881Z,9.072
2022-11-13T08:48:18.223Z,9.125
2022-11-13T08:49:18.002Z,9.166
2022-11-13T08:50:17.221Z,9.145
2022-11-13T08:52:17.223Z,9.187
2022-11-13T08:53:17.279Z,9.176
2022-11-13T08:54:17.223Z,9.145
2022-11-13T08:55:17.403Z,9.176
2022-11-13T08:56:17.387Z,9.187
2022-11-13T08:57:17.367Z,9.197
2022-11-13T08:58:17.319Z,9.25
2022-11-13T08:59:17.501Z,9.25
2022-11-13T09:00:18.532Z,9.25
2022-11-13T09:01:18.091Z,9.25
2022-11-13T09:02:17.192Z,9.25
2022-11-13T09:03:17.503Z,9.25
2022-11-13T09:04:17.549Z,9.312
2022-11-13T09:05:17.654Z,9.312
2022-11-13T09:06:18.032Z,9.312
2022-11-13T09:07:17.604Z,9.312
2022-11-13T09:08:17.780Z,9.312
2022-11-13T09:09:17.829Z,9.343
2022-11-13T09:10:17.952Z,9.375
2022-11-13T09:11:18.316Z,9.375
2022-11-13T09:12:17.452Z,9.375
2022-11-13T09:13:16.816Z,9.375
2022-11-13T09:14:17.602Z,9.375
2022-11-13T09:15:23.224Z,9.375
2022-11-13T09:16:17.435Z,9.395
2022-11-13T09:17:17.687Z,9.385
2022-11-13T09:18:17.741Z,9.416
2022-11-13T09:19:17.833Z,9.416
2022-11-13T09:20:22.896Z,9.437
2022-11-13T09:21:17.203Z,9.437
2022-11-13T09:22:17.500Z,9.437
2022-11-13T09:23:17.577Z,9.437
2022-11-13T09:24:17.867Z,9.437
2022-11-13T09:25:18.064Z,9.437
2022-11-13T09:26:17.072Z,9.447
2022-11-13T09:27:17.088Z,9.437
2022-11-13T09:28:17.060Z,9.468
2022-11-13T09:29:17.378Z,9.458
2022-11-13T09:30:17.575Z,9.5
2022-11-13T09:31:17.660Z,9.5
2022-11-13T09:32:17.926Z,9.5
2022-11-13T09:33:18.012Z,9.5
2022-11-13T09:34:17.083Z,9.5
2022-11-13T09:35:17.395Z,9.541
2022-11-13T09:36:17.184Z,9.510
2022-11-13T09:37:17.811Z,9.5
2022-11-13T09:38:18.192Z,9.551
2022-11-13T09:39:17.363Z,9.541
2022-11-13T09:40:17.078Z,9.562
2022-11-13T09:41:17.257Z,9.562
2022-11-13T09:42:17.554Z,9.562
2022-11-13T09:43:17.355Z,9.562
2022-11-13T09:44:17.420Z,9.583
2022-11-13T09:46:17.419Z,9.625
2022-11-13T09:47:17.779Z,9.625
2022-11-13T09:48:17.380Z,9.625
2022-11-13T09:49:17.475Z,9.625
2022-11-13T09:50:17.505Z,9.625
2022-11-13T09:51:17.651Z,9.625
2022-11-13T09:52:17.745Z,9.625
2022-11-13T09:53:17.770Z,9.625
2022-11-13T09:54:17.570Z,9.625
2022-11-13T09:55:17.800Z,9.625
2022-11-13T09:56:17.577Z,9.625
2022-11-13T09:57:21.761Z,9.625
2022-11-13T09:58:17.437Z,9.635
2022-11-13T09:59:17.534Z,9.666
2022-11-13T10:00:18.460Z,9.687
2022-11-13T10:01:18.223Z,9.635
2022-11-13T10:02:17.396Z,9.625
2022-11-13T10:03:24.004Z,9.625
2022-11-13T10:04:20.830Z,9.666
2022-11-13T10:05:18.201Z,9.687
2022-11-13T10:06:22.262Z,9.687
2022-11-13T10:07:18.304Z,9.687
2022-11-13T10:08:17.452Z,9.687
2022-11-13T10:09:17.450Z,9.687
2022-11-13T10:10:17.346Z,9.687
2022-11-13T10:11:17.720Z,9.687
2022-11-13T10:12:18.070Z,9.687
2022-11-13T10:13:17.289Z,9.696
2022-11-13T10:14:17.520Z,9.724
2022-11-13T10:15:17.704Z,9.75
2022-11-13T10:16:17.502Z,9.75
2022-11-13T10:17:18.238Z,9.75
2022-11-13T10:18:16.926Z,9.75
2022-11-13T10:19:18.118Z,9.75
2022-11-13T10:20:17.195Z,9.75
2022-11-13T10:21:17.585Z,9.75
2022-11-13T10:22:39.107Z,9.75
2022-11-13T10:23:17.483Z,9.75
2022-11-13T10:24:20.702Z,9.75
2022-11-13T10:25:17.988Z,9.75
2022-11-13T10:26:17.332Z,9.75
2022-11-13T10:27:17.665Z,9.75
2022-11-13T10:28:54.863Z,9.770
2022-11-13T10:29:17.800Z,9.770
2022-11-13T10:30:18.408Z,9.812
2022-11-13T10:31:17.882Z,9.781
2022-11-13T10:32:18.493Z,9.770
2022-11-13T10:33:17.893Z,9.781
2022-11-13T10:34:18.305Z,9.812
2022-11-13T10:35:17.888Z,9.801
2022-11-13T10:36:18.294Z,9.812
2022-11-13T10:37:17.842Z,9.812
2022-11-13T10:38:18.197Z,9.812
2022-11-13T10:39:17.430Z,9.812
2022-11-13T10:40:31.246Z,9.812
2022-11-13T10:41:17.873Z,9.812
2022-11-13T10:42:18.035Z,9.812
2022-11-13T10:43:17.397Z,9.812
2022-11-13T10:44:17.167Z,9.812
2022-11-13T10:45:18.928Z,9.812
2022-11-13T10:46:17.239Z,9.812
2022-11-13T10:47:26.533Z,9.812
2022-11-13T10:48:17.460Z,9.812
2022-11-13T10:49:17.575Z,9.822
2022-11-13T10:50:17.510Z,9.833
2022-11-13T10:51:17.827Z,9.854
2022-11-13T10:52:17.971Z,9.864
2022-11-13T10:53:18.195Z,9.875
2022-11-13T10:54:17.532Z,9.875
2022-11-13T10:55:17.680Z,9.875
2022-11-13T10:56:17.644Z,9.875
2022-11-13T10:57:17.577Z,9.875
2022-11-13T10:58:18.126Z,9.875
2022-11-13T10:59:17.491Z,9.875
2022-11-13T11:00:19.107Z,9.875
2022-11-13T11:01:17.674Z,9.875
2022-11-13T11:02:45.881Z,9.875
2022-11-13T11:03:18.227Z,9.875
2022-11-13T11:04:17.006Z,9.875
2022-11-13T11:05:17.485Z,9.875
2022-11-13T11:06:17.380Z,9.875
2022-11-13T11:07:27.640Z,9.885
2022-11-13T11:08:17.705Z,9.885
2022-11-13T11:09:18.162Z,9.937
2022-11-13T11:10:17.759Z,9.937
2022-11-13T11:11:18.043Z,9.937
2022-11-13T11:12:17.072Z,9.937
2022-11-13T11:13:17.599Z,9.937
2022-11-13T11:14:18.022Z,9.937
2022-11-13T11:15:17.603Z,9.937
2022-11-13T11:16:17.461Z,9.937
2022-11-13T11:17:17.992Z,9.937
2022-11-13T11:18:17.138Z,9.937
2022-11-13T11:19:17.632Z,9.937
2022-11-13T11:20:18.000Z,9.937
2022-11-13T11:21:17.777Z,9.937
2022-11-13T11:22:17.960Z,9.937
2022-11-13T11:23:18.306Z,9.937
2022-11-13T11:24:17.658Z,9.937
2022-11-13T11:25:18.291Z,9.937
2022-11-13T11:26:45.012Z,9.958
2022-11-13T11:27:17.516Z,9.958
2022-11-13T11:28:17.524Z,9.958
2022-11-13T11:29:18.042Z,9.979
2022-11-13T11:30:17.477Z,10
2022-11-13T11:31:18.032Z,10
2022-11-13T11:32:16.820Z,10
2022-11-13T11:33:18.069Z,10
2022-11-13T11:34:17.078Z,10
2022-11-13T11:35:17.398Z,10
2022-11-13T11:36:17.616Z,10
2022-11-13T11:37:17.932Z,10
2022-11-13T11:38:17.877Z,10
2022-11-13T11:39:17.955Z,10
2022-11-13T11:40:17.991Z,10
2022-11-13T11:41:22.934Z,10
2022-11-13T11:42:17.792Z,10
2022-11-13T11:43:17.840Z,10
2022-11-13T11:44:18.074Z,10
2022-11-13T11:45:17.620Z,10
2022-11-13T11:46:58.971Z,10.02
2022-11-13T11:47:18.656Z,10.02
2022-11-13T11:48:17.572Z,10.04
2022-11-13T11:49:17.946Z,10.06
2022-11-13T11:50:18.118Z,10.06
2022-11-13T11:51:17.430Z,10.06
2022-11-13T11:52:17.272Z,10.06
2022-11-13T11:53:17.795Z,10.06
2022-11-13T11:54:17.951Z,10.06
2022-11-13T11:55:18.308Z,10.06
2022-11-13T11:56:17.703Z,10.06
2022-11-13T11:57:17.872Z,10.06
2022-11-13T11:58:18.072Z,10.06
2022-11-13T11:59:17.634Z,10.06
2022-11-13T12:00:18.331Z,10.08
2022-11-13T12:01:18.191Z,10.08
2022-11-13T12:02:18.024Z,10.12
2022-11-13T12:03:17.653Z,10.12
2022-11-13T12:04:17.920Z,10.12
2022-11-13T12:05:26.059Z,10.12
2022-11-13T12:06:17.494Z,10.12
2022-11-13T12:07:18.408Z,10.12
2022-11-13T12:08:17.747Z,10.12
2022-11-13T12:09:18.054Z,10.12
2022-11-13T12:10:17.675Z,10.16
2022-11-13T12:11:17.934Z,10.18
2022-11-13T12:12:18.291Z,10.18
2022-11-13T12:13:17.584Z,10.18
2022-11-13T12:14:17.862Z,10.18
2022-11-13T12:15:18.178Z,10.18
2022-11-13T12:16:22.329Z,10.18
2022-11-13T12:17:23.237Z,10.18
2022-11-13T12:18:18.157Z,10.18
2022-11-13T12:19:17.571Z,10.18
2022-11-13T12:20:18.373Z,10.18
2022-11-13T12:21:17.885Z,10.18
2022-11-13T12:22:18.199Z,10.18
2022-11-13T12:23:17.892Z,10.18
2022-11-13T12:24:18.088Z,10.18
2022-11-13T12:25:17.869Z,10.18
2022-11-13T12:26:18.349Z,10.18
2022-11-13T12:27:17.804Z,10.18
2022-11-13T12:28:18.304Z,10.20
2022-11-13T12:29:17.707Z,10.21
2022-11-13T12:30:18.437Z,10.20
2022-11-13T12:31:18.078Z,10.22
2022-11-13T12:32:17.716Z,10.20
2022-11-13T12:33:23.323Z,10.25
2022-11-13T12:34:17.918Z,10.25
2022-11-13T12:35:18.275Z,10.25
2022-11-13T12:36:18.014Z,10.25
2022-11-13T12:37:17.978Z,10.25
2022-11-13T12:38:18.410Z,10.25
2022-11-13T12:39:17.893Z,10.25
2022-11-13T12:40:18.159Z,10.25
2022-11-13T12:41:18.046Z,10.25
2022-11-13T12:42:17.657Z,10.25
2022-11-13T12:43:17.914Z,10.25
2022-11-13T12:44:18.170Z,10.25
2022-11-13T12:45:17.737Z,10.25
2022-11-13T12:46:17.719Z,10.26
2022-11-13T12:47:25.579Z,10.25
2022-11-13T12:48:17.767Z,10.25
2022-11-13T12:49:18.048Z,10.26
2022-11-13T12:50:17.413Z,10.30
2022-11-13T12:51:31.320Z,10.31
2022-11-13T12:52:17.383Z,10.31
2022-11-13T12:53:31.115Z,10.31
2022-11-13T12:54:17.247Z,10.31
2022-11-13T12:55:31.198Z,10.31
2022-11-13T12:56:17.963Z,10.31
2022-11-13T12:57:37.159Z,10.31
2022-11-13T12:58:17.555Z,10.31
2022-11-13T12:59:37.014Z,10.31
2022-11-13T13:00:18.519Z,10.31
2022-11-13T13:01:18.067Z,10.31
2022-11-13T13:02:17.613Z,10.31
2022-11-13T13:03:17.823Z,10.31
2022-11-13T13:04:17.838Z,10.31
2022-11-13T13:05:18.071Z,10.31
2022-11-13T13:06:17.517Z,10.31